Time;durP1;ratioP1;P1;durP2;ratioP2;P2;SDS_P1;SDS_P2;PMS_P1;PMS_P2;Temp;Humidity;BMP_temperature;BMP_pressure;BME280_temperature;BME280_humidity;BME280_pressure;Samples;Min_cycle;Max_cycle;Signal;HPM_P1;HPM_P2
2022/06/10 00:00:42;;;;;;;19.40;3.97;;;;;;;15.83;100.00;101952.19;10511339;28;20119;-75
2022/06/10 00:05:43;;;;;;;4.80;2.13;;;;;;;15.81;100.00;101957.00;10545199;28;20046;-75
2022/06/10 00:10:49;;;;;;;3.80;3.03;;;;;;;15.82;100.00;101947.75;10525679;28;20044;-74
2022/06/10 00:15:49;;;;;;;6.38;2.78;;;;;;;15.81;100.00;101946.09;10543164;28;20483;-75
2022/06/10 00:20:49;;;;;;;22.40;4.60;;;;;;;15.86;100.00;101949.06;10542823;28;20051;-75
2022/06/10 00:25:50;;;;;;;4.00;2.70;;;;;;;15.92;100.00;101942.75;10542652;28;20036;-75
2022/06/10 00:30:50;;;;;;;14.88;4.15;;;;;;;16.01;100.00;101946.13;10543043;28;20036;-75
2022/06/10 00:35:51;;;;;;;11.10;2.63;;;;;;;16.03;100.00;101936.66;10542225;28;20050;-75
2022/06/10 00:40:54;;;;;;;8.32;3.22;;;;;;;16.03;100.00;101944.03;10543003;28;20128;-75
2022/06/10 00:46:30;;;;;;;7.05;2.30;;;;;;;16.06;100.00;101943.59;10542652;28;20036;-75
2022/06/10 00:51:46;;;;;;;11.90;2.35;;;;;;;16.09;100.00;101954.13;10524729;28;20127;-75
2022/06/10 00:56:58;;;;;;;10.25;3.17;;;;;;;16.10;100.00;101944.03;10525730;28;20028;-75
2022/06/10 01:02:05;;;;;;;8.23;2.00;;;;;;;16.17;100.00;101951.16;10543103;28;20028;-75
2022/06/10 01:07:05;;;;;;;7.70;2.88;;;;;;;16.19;100.00;101945.50;10485634;28;1082569;-75
2022/06/10 01:12:31;;;;;;;17.80;3.67;;;;;;;16.23;100.00;101949.50;10542597;28;20055;-75
2022/06/10 01:17:47;;;;;;;10.02;2.50;;;;;;;16.24;100.00;101952.03;10541663;28;20454;-76
2022/06/10 01:23:07;;;;;;;3.55;2.25;;;;;;;16.24;100.00;101954.78;10543340;28;20381;-76
2022/06/10 01:28:18;;;;;;;7.03;3.22;;;;;;;16.24;100.00;101957.50;10510288;28;20035;-76
2022/06/10 01:33:43;;;;;;;1.95;1.77;;;;;;;16.13;100.00;101957.28;10524039;28;20065;-75
2022/06/10 01:38:53;;;;;;;10.10;2.63;;;;;;;15.94;100.00;101954.31;10526720;28;20110;-75
2022/06/10 01:43:56;;;;;;;7.82;2.72;;;;;;;15.82;100.00;101953.22;10541899;28;20024;-75
2022/06/10 01:49:31;;;;;;;4.55;2.47;;;;;;;15.89;100.00;101953.22;10524626;28;20028;-75
2022/06/10 01:54:36;;;;;;;15.77;2.78;;;;;;;15.97;100.00;101948.41;10524248;28;20040;-75
2022/06/10 01:59:48;;;;;;;4.53;2.63;;;;;;;16.04;100.00;101952.00;10524011;28;20032;-75
2022/06/10 02:04:50;;;;;;;5.53;2.40;;;;;;;16.13;100.00;101943.63;10506311;28;20062;-75
2022/06/10 02:09:59;;;;;;;5.80;2.17;;;;;;;16.16;100.00;101951.41;10522603;28;20055;-75
2022/06/10 02:15:20;;;;;;;7.18;2.40;;;;;;;16.24;100.00;101945.69;10524702;28;20032;-75
2022/06/10 02:20:24;;;;;;;4.22;2.28;;;;;;;16.23;100.00;101944.03;10521995;28;20038;-75
2022/06/10 02:25:26;;;;;;;9.30;3.05;;;;;;;16.19;100.00;101960.00;10505157;28;20509;-75
2022/06/10 02:30:42;;;;;;;10.20;3.10;;;;;;;16.24;100.00;101962.09;10521634;28;20457;-75
2022/06/10 02:35:49;;;;;;;19.02;2.78;;;;;;;16.16;100.00;101954.13;10508130;28;20121;-75
2022/06/10 02:40:54;;;;;;;;;;;;;;;16.04;100.00;101954.72;10521916;28;20028;-75
2022/06/10 02:45:58;;;;;;;13.38;3.17;;;;;;;15.89;100.00;101965.03;10521347;28;19908;-75
2022/06/10 02:50:58;;;;;;;3.00;2.45;;;;;;;15.76;100.00;101970.44;10506248;28;20040;-75
2022/06/10 02:55:59;;;;;;;7.60;2.53;;;;;;;15.71;100.00;101965.59;10506886;28;20047;-75
2022/06/10 03:01:26;;;;;;;12.85;2.70;;;;;;;15.76;100.00;101964.97;10539620;28;20024;-76
2022/06/10 03:06:51;;;;;;;10.18;2.10;;;;;;;15.83;100.00;101971.31;10517113;28;20059;-75
2022/06/10 03:12:14;;;;;;;5.32;2.45;;;;;;;15.74;100.00;101976.09;10541271;28;20162;-75
2022/06/10 03:17:24;;;;;;;9.38;3.60;;;;;;;15.40;100.00;101978.88;10508789;28;20111;-75
2022/06/10 03:23:12;;;;;;;11.85;3.03;;;;;;;15.10;100.00;101966.34;10505119;28;20031;-75
2022/06/10 03:28:14;;;;;;;;;;;;;;;14.98;100.00;101967.97;10462854;28;20129;-75
2022/06/10 03:33:28;;;;;;;3.22;2.35;;;;;;;15.01;100.00;101973.03;10520982;28;19908;-75
2022/06/10 03:38:32;;;;;;;17.08;4.00;;;;;;;15.02;100.00;101963.78;10510663;28;20087;-75
2022/06/10 03:43:34;;;;;;;7.53;3.22;;;;;;;15.00;100.00;101976.81;10511715;28;20024;-75
2022/06/10 03:48:36;;;;;;;8.65;3.40;;;;;;;14.96;100.00;101975.50;10512371;28;20443;-75
2022/06/10 03:53:36;;;;;;;7.95;3.30;;;;;;;14.99;100.00;101979.72;10527942;28;20357;-76
2022/06/10 03:58:38;;;;;;;7.63;2.45;;;;;;;15.02;100.00;101977.41;10527983;28;20063;-75
2022/06/10 04:03:38;;;;;;;2.17;1.65;;;;;;;15.06;100.00;101970.53;10528806;28;20024;-75
2022/06/10 04:08:39;;;;;;;11.05;2.58;;;;;;;15.17;100.00;101977.31;10545231;28;20409;-75
2022/06/10 04:13:39;;;;;;;11.32;3.75;;;;;;;15.26;100.00;101972.53;10527298;28;20028;-74
2022/06/10 04:18:40;;;;;;;16.20;3.80;;;;;;;15.35;100.00;101968.59;10546177;28;20396;-75
2022/06/10 04:23:40;;;;;;;9.95;2.85;;;;;;;15.41;100.00;101978.69;10527764;28;20384;-76
2022/06/10 04:28:41;;;;;;;9.10;2.90;;;;;;;15.48;100.00;101981.47;10545300;28;20411;-75
2022/06/10 04:33:41;;;;;;;4.70;2.55;;;;;;;15.58;100.00;101988.22;10545594;28;20032;-75
2022/06/10 04:38:42;;;;;;;4.90;2.67;;;;;;;15.71;100.00;101981.16;10526346;28;20114;-76
2022/06/10 04:43:42;;;;;;;7.40;2.47;;;;;;;15.80;100.00;101982.66;10509499;28;20028;-75
2022/06/10 04:48:43;;;;;;;8.13;3.25;;;;;;;15.88;100.00;101976.97;10525335;28;20065;-77
2022/06/10 04:53:43;;;;;;;9.82;3.28;;;;;;;16.00;100.00;101983.53;10544750;28;20035;-75
2022/06/10 04:58:43;;;;;;;11.70;3.30;;;;;;;16.10;100.00;101982.28;10542768;28;20506;-75
2022/06/10 05:03:44;;;;;;;5.60;2.90;;;;;;;16.03;100.00;101977.66;10542595;28;20036;-75
2022/06/10 05:08:44;;;;;;;10.40;3.08;;;;;;;16.13;100.00;101971.78;10544839;28;20063;-72
2022/06/10 05:13:45;;;;;;;10.43;3.60;;;;;;;16.16;100.00;101978.72;10543059;28;20465;-76
2022/06/10 05:18:46;;;;;;;10.23;3.03;;;;;;;16.22;100.00;101980.63;10491717;28;20031;-74
2022/06/10 05:23:47;;;;;;;17.05;3.35;;;;;;;16.20;100.00;101977.25;10281343;28;26776;-75
2022/06/10 05:28:50;;;;;;;11.20;2.45;;;;;;;16.31;100.00;101981.28;10542705;28;20035;-75
2022/06/10 05:39:09;;;;;;;3.67;3.38;;;;;;;16.43;100.00;101977.69;10541348;28;20040;-75
2022/06/10 05:44:09;;;;;;;10.23;3.33;;;;;;;16.45;100.00;101981.03;10522718;28;20028;-75
2022/06/10 05:49:10;;;;;;;17.80;2.88;;;;;;;16.65;100.00;101997.44;10541258;28;20032;-74
2022/06/10 05:54:11;;;;;;;5.22;2.33;;;;;;;16.72;100.00;101987.38;10540557;28;20393;-75
2022/06/10 05:59:12;;;;;;;10.07;3.45;;;;;;;16.59;100.00;102001.06;10540807;28;20480;-75
2022/06/10 06:04:12;;;;;;;8.85;3.13;;;;;;;16.52;100.00;102006.50;10540291;28;20039;-75
2022/06/10 06:09:14;;;;;;;16.55;2.85;;;;;;;16.55;100.00;102007.97;10522784;28;20052;-74
2022/06/10 06:14:16;;;;;;;5.93;3.03;;;;;;;16.62;100.00;102014.28;10539228;28;20024;-74
2022/06/10 06:19:18;;;;;;;8.00;3.45;;;;;;;16.75;100.00;102013.47;10522618;28;20047;-75
2022/06/10 06:24:18;;;;;;;7.80;3.30;;;;;;;16.99;100.00;102002.94;10540257;28;20043;-75
2022/06/10 06:29:19;;;;;;;9.50;4.47;;;;;;;17.31;100.00;102018.44;10541079;28;20058;-75
2022/06/10 06:34:20;;;;;;;8.43;2.83;;;;;;;17.72;100.00;102019.13;10521671;28;20028;-75
2022/06/10 06:39:23;;;;;;;6.30;2.78;;;;;;;17.78;100.00;102018.28;10521732;28;20043;-75
2022/06/10 06:44:23;;;;;;;6.18;3.13;;;;;;;17.89;100.00;102025.81;10505594;28;20039;-75
2022/06/10 06:49:26;;;;;;;7.00;3.00;;;;;;;18.22;100.00;102019.28;10540203;28;20032;-75
2022/06/10 06:54:28;;;;;;;12.40;3.65;;;;;;;18.52;100.00;102019.50;10521120;28;20025;-76
2022/06/10 06:59:29;;;;;;;6.10;3.33;;;;;;;18.57;100.00;102022.44;10539048;28;20036;-76
2022/06/10 07:04:30;;;;;;;4.43;3.50;;;;;;;18.78;100.00;102030.28;10520403;28;20114;-76
2022/06/10 07:09:30;;;;;;;9.52;3.03;;;;;;;19.08;100.00;102026.84;10540230;28;20424;-75
2022/06/10 07:14:30;;;;;;;17.70;3.97;;;;;;;19.25;100.00;102027.91;10526865;28;20090;-74
2022/06/10 07:19:31;;;;;;;8.40;3.92;;;;;;;19.29;100.00;102033.78;10547134;28;20040;-74
2022/06/10 07:24:31;;;;;;;2.90;2.53;;;;;;;19.52;100.00;102024.84;10530328;28;20374;-75
2022/06/10 07:29:32;;;;;;;21.85;3.15;;;;;;;20.01;96.89;102024.91;10528228;28;20060;-76
2022/06/10 07:34:32;;;;;;;4.00;3.35;;;;;;;20.94;95.43;102032.53;10529008;28;20445;-75
2022/06/10 07:39:33;;;;;;;8.15;3.65;;;;;;;22.61;85.66;102029.88;10528329;28;20088;-76
2022/06/10 07:44:35;;;;;;;4.63;1.95;;;;;;;22.90;85.02;102036.13;10546994;28;20028;-76
2022/06/10 07:49:35;;;;;;;8.55;3.15;;;;;;;22.38;89.31;102028.94;10527505;28;20040;-76
2022/06/10 07:54:36;;;;;;;5.88;2.20;;;;;;;21.81;84.17;102037.22;10527421;28;20032;-76
2022/06/10 07:59:37;;;;;;;6.40;2.45;;;;;;;21.21;88.54;102026.53;10545264;28;20029;-76
2022/06/10 08:04:37;;;;;;;2.63;2.38;;;;;;;21.06;88.87;102030.63;10527300;28;20035;-76
2022/06/10 08:09:38;;;;;;;3.13;2.10;;;;;;;20.28;89.38;102037.19;10546095;28;20071;-76
2022/06/10 08:14:39;;;;;;;8.13;3.03;;;;;;;20.04;90.70;102033.53;10545804;28;20044;-75
2022/06/10 08:19:39;;;;;;;8.05;3.20;;;;;;;19.86;92.76;102044.56;10544032;28;20032;-75
2022/06/10 08:24:40;;;;;;;4.30;2.28;;;;;;;20.04;94.37;102043.66;10543720;28;20073;-76
2022/06/10 08:29:40;;;;;;;3.28;2.30;;;;;;;20.20;93.69;102030.13;10527537;28;20035;-75
2022/06/10 08:34:41;;;;;;;5.97;2.78;;;;;;;20.98;89.14;102032.91;10542496;28;20118;-75
2022/06/10 08:39:41;;;;;;;5.82;3.03;;;;;;;21.72;92.77;102038.69;10543895;28;20036;-76
2022/06/10 08:44:53;;;;;;;6.82;3.25;;;;;;;22.75;78.30;102022.94;10543931;28;20043;-75
2022/06/10 08:50:16;;;;;;;7.20;3.42;;;;;;;24.66;78.50;102025.00;10510505;28;20067;-76
2022/06/10 08:55:27;;;;;;;10.25;3.70;;;;;;;25.10;79.27;102028.38;10525826;28;20039;-76
2022/06/10 09:00:30;;;;;;;3.22;2.90;;;;;;;24.61;79.49;102028.59;10508992;28;20089;-76
2022/06/10 09:05:33;;;;;;;5.00;2.78;;;;;;;25.63;77.48;102020.91;10508438;28;20381;-76
2022/06/10 09:10:54;;;;;;;4.43;2.33;;;;;;;24.14;76.71;102030.06;10524886;28;20058;-76
2022/06/10 09:15:59;;;;;;;8.93;3.13;;;;;;;24.02;76.02;102034.06;10507623;28;20024;-76
2022/06/10 09:21:11;;;;;;;6.63;2.83;;;;;;;24.22;80.88;102027.91;10508692;28;20380;-77
2022/06/10 09:26:15;;;;;;;4.72;2.50;;;;;;;24.79;75.80;102030.94;10542918;28;20107;-76
2022/06/10 09:31:36;;;;;;;4.70;2.15;;;;;;;25.31;69.84;102029.38;10507424;28;20031;-77
2022/06/10 09:36:43;;;;;;;9.52;2.38;;;;;;;25.62;76.56;102026.72;10541734;28;20419;-77
2022/06/10 09:41:59;;;;;;;1.98;1.88;;;;;;;27.28;61.95;102026.34;10542885;28;20121;-77
2022/06/10 09:47:12;;;;;;;2.78;2.15;;;;;;;27.49;59.62;102020.69;10507984;28;20354;-77
2022/06/10 09:52:50;;;;;;;4.25;2.20;;;;;;;26.52;63.85;102021.69;10508466;28;20058;-77
2022/06/10 09:58:25;;;;;;;12.90;1.85;;;;;;;26.21;67.92;102038.28;10538696;28;20039;-77
2022/06/10 10:04:00;;;;;;;3.92;1.63;;;;;;;24.65;63.30;102048.28;10542039;28;20073;-77
2022/06/10 10:09:20;;;;;;;5.22;2.05;;;;;;;23.25;69.29;102057.97;10542668;28;20051;-77
2022/06/10 10:14:35;;;;;;;3.28;1.77;;;;;;;23.08;70.71;102059.94;10541653;28;20032;-76
2022/06/10 10:19:44;;;;;;;15.50;2.35;;;;;;;23.19;71.89;102058.97;10524170;28;20361;-77
2022/06/10 10:24:44;;;;;;;11.40;2.72;;;;;;;23.25;70.22;102060.72;10540236;28;20032;-76
2022/06/10 10:29:46;;;;;;;4.68;1.85;;;;;;;24.65;69.86;102051.03;10522097;28;20028;-77
2022/06/10 10:34:50;;;;;;;2.70;2.42;;;;;;;24.32;66.83;102053.78;10505228;28;20062;-76
2022/06/10 10:39:53;;;;;;;4.63;2.58;;;;;;;23.86;67.64;102056.03;10506224;28;20081;-76
2022/06/10 10:45:05;;;;;;;7.00;1.88;;;;;;;25.38;63.29;102051.31;10538545;28;20035;-76
2022/06/10 10:50:15;;;;;;;7.03;3.15;;;;;;;26.06;63.64;102048.53;10549429;28;20036;-77
2022/06/10 10:55:20;;;;;;;5.78;2.63;;;;;;;26.05;61.25;102055.19;10530911;28;20035;-77
2022/06/10 11:00:20;;;;;;;14.75;3.13;;;;;;;27.27;54.02;102043.28;10530134;28;20084;-77
2022/06/10 11:05:26;;;;;;;4.03;1.90;;;;;;;28.09;56.28;102042.97;10547777;28;20433;-77
2022/06/10 11:10:26;;;;;;;;;;;;;;;27.95;47.44;102049.16;10548706;28;20084;-78
2022/06/10 11:15:28;;;;;;;4.00;2.83;;;;;;;28.60;52.34;102040.66;10548513;28;19912;-77
2022/06/10 11:20:30;;;;;;;2.17;1.67;;;;;;;29.17;52.69;102044.59;10514239;28;20103;-78
2022/06/10 11:25:31;;;;;;;2.15;1.92;;;;;;;28.77;53.90;102045.78;10547528;28;20028;-77
2022/06/10 11:30:34;;;;;;;0.88;0.88;;;;;;;28.84;45.97;102037.91;10529739;28;20044;-76
2022/06/10 11:35:38;;;;;;;3.05;1.95;;;;;;;26.88;52.14;102055.84;10513075;28;20350;-77
2022/06/10 11:40:49;;;;;;;2.70;2.50;;;;;;;28.38;53.83;102049.44;10529776;28;20072;-77
2022/06/10 11:45:55;;;;;;;2.05;1.73;;;;;;;28.94;50.68;102048.97;10547286;28;20089;-78
2022/06/10 11:50:59;;;;;;;2.13;1.58;;;;;;;27.76;52.13;102048.09;10512320;28;20036;-77
2022/06/10 12:01:24;;;;;;;2.40;1.90;;;;;;;28.28;49.85;102047.53;10544716;28;20124;-77
2022/06/10 12:06:50;;;;;;;2.28;1.90;;;;;;;27.76;50.28;102042.53;10528208;28;20028;-77
2022/06/10 12:11:54;;;;;;;1.98;1.80;;;;;;;26.41;54.32;102047.75;10533954;28;20044;-77
2022/06/10 12:17:20;;;;;;;8.55;2.28;;;;;;;27.49;50.75;102040.16;10511146;28;20078;-78
2022/06/10 12:22:21;;;;;;;11.43;2.88;;;;;;;28.22;53.71;102042.31;10534799;28;20043;-77
2022/06/10 12:27:32;;;;;;;20.40;3.92;;;;;;;28.84;50.90;102031.50;10526842;28;20476;-77
2022/06/10 12:32:47;;;;;;;1.27;1.27;;;;;;;29.24;50.12;102044.22;10544964;28;20096;-77
2022/06/10 12:37:52;;;;;;;1.88;1.77;;;;;;;28.97;50.79;102030.81;10527695;28;20039;-77
2022/06/10 12:42:58;;;;;;;1.60;1.50;;;;;;;28.96;49.51;102027.19;10526610;28;20036;-77
2022/06/10 12:48:00;;;;;;;5.00;1.92;;;;;;;28.20;54.09;102044.53;10527723;28;20710;-77
2022/06/10 12:53:06;;;;;;;4.05;2.10;;;;;;;26.74;53.94;102045.56;10509602;28;20046;-77
2022/06/10 12:58:35;;;;;;;5.30;2.80;;;;;;;25.96;57.97;102041.00;10525656;28;20465;-77
2022/06/10 13:03:37;;;;;;;5.07;1.35;;;;;;;25.57;59.57;102048.91;10528259;28;20028;-77
2022/06/10 13:08:41;;;;;;;1.45;1.35;;;;;;;27.26;57.69;102048.03;10541757;28;20402;-77
2022/06/10 13:13:43;;;;;;;3.10;2.90;;;;;;;28.43;55.94;102043.84;10543617;28;20028;-77
2022/06/10 13:18:54;;;;;;;2.75;2.53;;;;;;;27.95;55.14;102043.59;10525662;28;20118;-77
2022/06/10 13:24:11;;;;;;;2.00;1.90;;;;;;;26.80;56.71;102034.19;10542909;28;20524;-77
2022/06/10 13:29:11;;;;;;;;;;;;;;;26.56;55.31;102028.34;10525541;28;20028;-77
2022/06/10 13:34:38;;;;;;;7.38;2.53;;;;;;;26.11;57.45;102043.84;10542306;28;20269;-77
2022/06/10 13:39:39;;;;;;;;;;;;;;;25.61;59.36;102042.53;10524110;28;20042;-77
2022/06/10 13:44:45;;;;;;;2.90;2.53;;;;;;;25.69;61.67;102046.75;10523486;28;20276;-77
2022/06/10 13:55:28;;;;;;;3.75;2.88;;;;;;;26.24;60.61;102050.78;10527041;28;20067;-76
2022/06/10 14:00:30;;;;;;;4.70;1.58;;;;;;;26.12;61.92;102051.03;10542617;28;20085;-77
2022/06/10 14:05:31;;;;;;;2.65;1.70;;;;;;;26.08;62.12;102049.09;10505336;28;20036;-76
2022/06/10 14:10:43;;;;;;;2.05;1.85;;;;;;;26.20;60.57;102046.91;10540274;28;20059;-77
2022/06/10 14:15:57;;;;;;;1.80;1.70;;;;;;;26.23;62.01;102042.72;10524462;28;20052;-76
2022/06/10 14:20:59;;;;;;;3.08;2.13;;;;;;;25.86;60.38;102030.72;10507399;28;20350;-77
2022/06/10 14:26:11;;;;;;;2.35;1.63;;;;;;;25.58;64.07;102034.75;10505721;28;20118;-76
2022/06/10 14:31:31;;;;;;;2.67;2.08;;;;;;;25.17;63.05;102034.53;10539510;28;20465;-76
2022/06/10 14:36:31;;;;;;;3.92;2.53;;;;;;;24.74;65.40;102035.63;10541005;28;20036;-76
2022/06/10 14:41:33;;;;;;;7.20;2.63;;;;;;;24.50;66.91;102027.66;10521830;28;20469;-77
2022/06/10 14:46:34;;;;;;;4.03;2.08;;;;;;;24.63;67.79;102018.06;10522258;28;20032;-76
2022/06/10 14:51:36;;;;;;;4.50;1.83;;;;;;;24.71;66.95;102033.38;10539249;28;20036;-76
2022/06/10 14:56:43;;;;;;;7.85;2.03;;;;;;;24.14;67.55;102018.97;10538783;28;20032;-76
2022/06/10 15:01:43;;;;;;;4.43;1.65;;;;;;;23.57;69.73;102013.88;10522269;28;20381;-76
2022/06/10 15:06:46;;;;;;;6.47;2.15;;;;;;;23.21;70.56;102018.97;10538500;28;20036;-76
2022/06/10 15:11:47;;;;;;;3.13;2.05;;;;;;;22.80;71.85;102023.00;10521165;28;20431;-76
2022/06/10 15:16:47;;;;;;;8.63;3.10;;;;;;;22.52;72.27;102022.00;10505376;28;20032;-76
2022/06/10 15:21:49;;;;;;;6.05;2.53;;;;;;;22.09;74.14;102022.59;10521964;28;20028;-77
2022/06/10 15:26:50;;;;;;;5.03;3.47;;;;;;;21.87;74.77;102016.09;10522585;28;20032;-76
2022/06/10 15:31:51;;;;;;;3.58;2.30;;;;;;;21.81;76.19;102015.16;10504292;28;20089;-76
2022/06/10 15:42:11;;;;;;;5.50;2.70;;;;;;;21.68;77.03;102015.44;10531269;28;20036;-76
2022/06/10 15:47:13;;;;;;;6.47;2.58;;;;;;;21.59;76.57;101995.69;10545284;28;20032;-76
2022/06/10 15:52:15;;;;;;;9.38;3.75;;;;;;;21.62;76.57;101999.88;10545942;28;20036;-76
2022/06/10 15:57:16;;;;;;;3.35;3.05;;;;;;;21.60;76.72;102002.88;10545264;28;20036;-76
2022/06/10 16:02:19;;;;;;;10.15;3.05;;;;;;;21.43;77.53;102013.81;10511124;28;20020;-76
2022/06/10 16:07:20;;;;;;;2.72;2.38;;;;;;;21.30;78.33;102008.56;10544826;28;20148;-76
2022/06/10 16:13:11;;;;;;;4.07;2.75;;;;;;;21.39;78.30;102006.31;10527170;28;20376;-75
2022/06/10 16:17:47;;;;;;;10.27;3.10;;;;;;;21.52;78.41;102003.28;10515770;28;20477;-76
2022/06/10 16:22:48;;;;;;;2.80;2.60;;;;;;;21.65;78.39;102004.91;10510356;28;20032;-76
2022/06/10 16:27:51;;;;;;;8.60;2.97;;;;;;;21.77;77.98;101992.75;10544667;28;20047;-76
2022/06/10 16:32:51;;;;;;;2.08;1.98;;;;;;;21.77;77.80;101997.44;10526196;28;20032;-76
2022/06/10 16:37:52;;;;;;;6.30;3.08;;;;;;;21.47;78.59;101994.88;10509412;28;20027;-76
2022/06/10 16:42:53;;;;;;;3.72;2.03;;;;;;;21.94;77.94;101980.94;10544815;28;20121;-75
2022/06/10 16:47:54;;;;;;;10.65;1.83;;;;;;;21.89;77.40;101978.94;10526172;28;20036;-76
2022/06/10 16:52:54;;;;;;;2.22;1.98;;;;;;;21.28;78.52;101972.13;10525972;28;20032;-76
2022/06/10 16:57:55;;;;;;;5.45;2.05;;;;;;;21.08;79.33;101973.38;10544126;28;20039;-75
2022/06/10 17:02:58;;;;;;;5.22;2.63;;;;;;;21.01;81.29;101969.91;10525482;28;20031;-76
2022/06/10 17:07:58;;;;;;;7.03;2.80;;;;;;;21.06;80.20;101966.44;10542894;28;20174;-75
2022/06/10 17:13:01;;;;;;;2.53;2.10;;;;;;;20.75;81.37;101968.50;10543606;28;20089;-75
2022/06/10 17:18:04;;;;;;;3.60;2.60;;;;;;;20.60;82.74;101968.13;10510027;28;20074;-76
2022/06/10 17:23:06;;;;;;;3.90;2.40;;;;;;;20.54;83.36;101963.56;10526402;28;20028;-76
2022/06/10 17:28:06;;;;;;;14.40;2.67;;;;;;;20.89;83.65;101971.84;10524172;28;20063;-76
2022/06/10 17:33:27;;;;;;;6.43;2.53;;;;;;;21.42;81.06;101967.25;10524018;28;20055;-76
2022/06/10 17:38:35;;;;;;;3.08;1.60;;;;;;;21.50;80.29;101964.09;10523752;28;20416;-76
2022/06/10 17:43:40;;;;;;;3.47;2.28;;;;;;;21.68;79.19;101965.81;10542611;28;20036;-76
2022/06/10 17:48:41;;;;;;;2.10;1.73;;;;;;;21.56;78.88;101972.22;10492071;28;20073;-76
2022/06/10 17:53:41;;;;;;;2.05;1.60;;;;;;;21.67;78.25;101965.00;10523165;28;20068;-76
2022/06/10 17:58:42;;;;;;;2.67;1.58;;;;;;;21.61;78.09;101973.41;10540709;28;20469;-76
2022/06/10 18:03:42;;;;;;;1.58;1.30;;;;;;;21.59;78.50;101979.16;10490659;28;20032;-76
2022/06/10 18:08:43;;;;;;;3.28;1.38;;;;;;;21.54;78.65;101979.91;10523467;28;20083;-76
2022/06/10 18:19:05;;;;;;;0.98;0.98;;;;;;;20.97;80.34;101971.47;10526635;28;20036;-75
2022/06/10 18:24:08;;;;;;;2.03;1.15;;;;;;;20.55;82.18;101979.00;10506037;28;20036;-76
2022/06/10 18:29:31;;;;;;;2.88;1.90;;;;;;;20.37;82.05;101971.66;10506165;28;20496;-76
2022/06/10 18:34:32;;;;;;;1.35;1.23;;;;;;;20.29;81.92;101974.75;10541110;28;20460;-76
2022/06/10 18:39:32;;;;;;;4.00;1.88;;;;;;;20.14;83.19;101975.22;10521592;28;20047;-78
2022/06/10 18:44:34;;;;;;;3.22;1.85;;;;;;;20.11;83.79;101968.28;10540521;28;20036;-75
2022/06/10 18:49:36;;;;;;;6.53;1.65;;;;;;;19.86;85.58;101975.84;10505689;28;20140;-76
2022/06/10 18:54:37;;;;;;;3.30;1.45;;;;;;;19.74;85.01;101979.38;10522837;28;20044;-76
2022/06/10 18:59:38;;;;;;;3.92;1.80;;;;;;;19.56;86.19;101967.53;10540478;28;20032;-76
2022/06/10 19:04:40;;;;;;;3.00;1.73;;;;;;;19.48;87.31;101965.94;10540037;28;20384;-76
2022/06/10 19:09:41;;;;;;;2.33;1.95;;;;;;;19.44;87.27;101965.59;10526959;28;20055;-75
2022/06/10 19:14:42;;;;;;;2.40;2.13;;;;;;;19.34;87.63;101964.47;10529844;28;20039;-76
2022/06/10 19:19:46;;;;;;;1.65;1.52;;;;;;;19.18;88.29;101969.50;10530338;28;20060;-76
2022/06/10 19:24:46;;;;;;;3.58;2.55;;;;;;;18.97;89.80;101968.03;10547328;28;20491;-75
2022/06/10 19:29:47;;;;;;;3.85;1.92;;;;;;;18.87;88.39;101958.66;10547693;28;20031;-75
2022/06/10 19:34:49;;;;;;;4.93;2.60;;;;;;;18.69;90.68;101964.91;10546791;28;20056;-75
2022/06/10 19:39:50;;;;;;;4.55;2.28;;;;;;;18.57;90.75;101973.88;10529317;28;20407;-75
2022/06/10 19:44:51;;;;;;;4.00;2.28;;;;;;;18.49;90.28;101965.09;10511333;28;20032;-76
2022/06/10 19:50:06;;;;;;;9.10;2.45;;;;;;;18.34;91.26;101973.63;10511947;28;20081;-76
2022/06/10 19:55:21;;;;;;;9.48;2.38;;;;;;;18.22;90.80;101978.16;10530275;28;20028;-76
2022/06/10 20:00:21;;;;;;;6.38;3.22;;;;;;;18.13;91.14;101980.34;10546814;28;20035;-75
2022/06/10 20:05:34;;;;;;;7.57;2.28;;;;;;;17.97;93.04;101980.88;10527069;28;20043;-76
2022/06/10 20:10:36;;;;;;;3.40;2.35;;;;;;;17.90;94.21;101989.16;10527984;28;20131;-76
2022/06/10 20:15:39;;;;;;;7.72;2.40;;;;;;;17.81;92.87;101993.19;10517388;28;20445;-75
2022/06/10 20:20:42;;;;;;;4.95;2.75;;;;;;;17.66;94.93;102007.13;10527579;28;20039;-76
2022/06/10 20:25:43;;;;;;;7.70;3.53;;;;;;;17.54;97.00;102000.66;10545966;28;20119;-76
2022/06/10 20:30:44;;;;;;;6.30;3.22;;;;;;;17.47;95.62;102008.91;10527707;28;20032;-76
2022/06/10 20:35:45;;;;;;;10.32;2.88;;;;;;;17.38;96.42;102001.97;10510650;28;20034;-76
2022/06/10 20:40:46;;;;;;;6.25;3.85;;;;;;;17.35;95.34;102007.88;10510194;28;20063;-74
2022/06/10 20:45:54;;;;;;;9.20;5.07;;;;;;;17.27;95.56;102010.88;10545822;28;20035;-75
2022/06/10 20:50:57;;;;;;;12.98;3.67;;;;;;;17.19;95.97;102004.53;10528724;28;20032;-76
2022/06/10 20:55:57;;;;;;;9.38;3.67;;;;;;;17.12;96.89;102001.00;10543344;28;20040;-75
2022/06/10 21:01:02;;;;;;;13.60;2.90;;;;;;;17.07;97.34;102006.28;10543678;28;20044;-76
2022/06/10 21:11:32;;;;;;;21.38;3.80;;;;;;;16.90;96.08;102005.88;10529834;28;20516;-77
2022/06/10 21:16:36;;;;;;;4.80;3.30;;;;;;;16.91;95.92;102012.19;10509975;28;20032;-75
2022/06/10 21:21:37;;;;;;;14.15;3.58;;;;;;;17.08;96.53;102013.44;10508516;28;20043;-75
2022/06/10 21:26:37;;;;;;;15.02;3.72;;;;;;;17.27;95.00;102002.66;10542795;28;20032;-76
2022/06/10 21:31:54;;;;;;;6.47;3.40;;;;;;;17.40;93.90;102005.34;10541664;28;20134;-75
2022/06/10 21:36:55;;;;;;;19.60;3.75;;;;;;;17.30;93.81;102004.97;10524851;28;20028;-76
2022/06/10 21:47:21;;;;;;;7.88;3.45;;;;;;;17.07;92.42;101995.34;10542075;28;20060;-76
2022/06/10 21:52:31;;;;;;;6.57;3.40;;;;;;;16.93;92.67;101994.50;10524875;28;20024;-76
2022/06/10 21:57:34;;;;;;;7.03;3.38;;;;;;;16.75;93.77;101988.84;10525729;28;20039;-76
2022/06/10 22:02:34;;;;;;;13.77;3.25;;;;;;;16.69;93.41;101986.94;10541312;28;20028;-76
2022/06/10 22:07:34;;;;;;;7.20;2.08;;;;;;;16.59;93.58;101992.84;10506256;28;20032;-76
2022/06/10 22:12:41;;;;;;;5.43;3.67;;;;;;;16.48;93.06;101991.56;10523457;28;20471;-76
2022/06/10 22:17:42;;;;;;;16.27;2.83;;;;;;;16.36;93.88;101993.22;10541380;28;20036;-76
2022/06/10 22:22:43;;;;;;;15.75;3.00;;;;;;;16.28;94.04;101990.72;10522362;28;20024;-75
2022/06/10 22:27:44;;;;;;;9.10;3.22;;;;;;;16.23;95.83;101998.69;10540681;28;20072;-76
2022/06/10 22:32:44;;;;;;;20.05;3.65;;;;;;;16.27;97.03;101995.34;10541440;28;20031;-76
2022/06/10 22:37:44;;;;;;;7.25;2.75;;;;;;;16.32;95.64;101991.16;10505664;28;20507;-75
2022/06/10 22:42:45;;;;;;;12.02;4.05;;;;;;;16.24;94.51;102003.97;10540338;28;20035;-76
2022/06/10 22:47:52;;;;;;;10.38;3.75;;;;;;;16.09;94.27;101986.06;10540945;28;20040;-75
2022/06/10 22:52:56;;;;;;;6.22;3.20;;;;;;;15.97;95.68;101994.88;10541569;28;20028;-75
2022/06/10 22:57:59;;;;;;;13.27;4.65;;;;;;;15.91;100.00;101997.59;10506674;28;20064;-76
2022/06/10 23:03:05;;;;;;;7.53;2.30;;;;;;;15.95;100.00;101999.72;10506173;28;20084;-76
2022/06/10 23:08:07;;;;;;;;;;;;;;;15.89;100.00;102000.53;10506742;28;20044;-76
2022/06/10 23:13:19;;;;;;;8.60;3.70;;;;;;;15.84;98.54;102000.31;10521165;28;19918;-75
2022/06/10 23:18:23;;;;;;;16.55;5.20;;;;;;;15.80;98.98;101993.56;10524953;28;20052;-75
2022/06/10 23:23:24;;;;;;;8.05;3.45;;;;;;;15.70;99.50;102001.31;10505808;28;20028;-76
2022/06/10 23:28:24;;;;;;;7.22;3.92;;;;;;;15.61;97.02;101999.78;10539445;28;20389;-76
2022/06/10 23:33:25;;;;;;;8.57;4.47;;;;;;;15.51;97.38;102000.16;10504638;28;20028;-76
2022/06/10 23:38:30;;;;;;;7.32;3.65;;;;;;;15.40;98.47;101993.38;10539176;28;20032;-75
2022/06/10 23:43:36;;;;;;;18.52;4.13;;;;;;;15.35;98.06;101998.63;10521043;28;20241;-76
2022/06/10 23:53:56;;;;;;;9.07;3.92;;;;;;;15.33;100.00;101997.97;10540617;28;20036;-76
2022/06/10 23:59:08;;;;;;;7.57;2.95;;;;;;;15.38;100.00;102005.53;10512672;28;20028;-76
